aviador You're here:

KSPF Decoded Metar

SPEARFISH/CLYDE in SD, USA
Report Time2018-06-25 11:35:00
UTC Time2018-06-25 11:59:00
Flight Rules vfr VFR
Wind180° at 05 kt
W.Decomp.*RWY 13: 3.9 kt HW 3.1 kt RCW
RWY 22: 3.1 kt HW 3.9 kt LCW
RWY 08: 0.1 kt HW 5.0 kt RCW
W.Rank180° ranks 29
Current wind is below 180° avg. (7.0)
Visibility9999 m
Phenomena:N/A
Clouds:Few 018 Hf
Scattered 024 Hf
CeilingNone
Temp11°C (ISA +4)
Dew Point11°C (100% RH)
AAT9.5°C
QNH1018 hPa
Density Alt4,364 ft
Elevation3,898 ft
Report Wrong Elevation
Raw Report
KSPF 251135Z AUTO 18005KT 10SM FEW018 SCT024 11/11 A3005 RMK AO2
PWINO=

Extra information for KSPF:More info

Metar Taf Metar & Taf Last 4 Metars F.Rules Stats Wind Profile Meteogram Temp Stats Airport Information Weather charts Add Link Nearby VenuesMetar ALERT Operation Metar Decoded Social comments

AIRNAV info for KSPF